createdAt,value
2018-12-11T00:04:03.208Z,100676.06
2018-12-11T00:09:08.614Z,100680.73
2018-12-11T00:14:11.841Z,100684.75
2018-12-11T00:19:15.197Z,100675.08
2018-12-11T00:24:18.469Z,100675.20
2018-12-11T00:29:21.794Z,100677.25
2018-12-11T00:34:24.963Z,100665.05
2018-12-11T00:39:28.169Z,100670.58
2018-12-11T00:44:31.339Z,100666.48
2018-12-11T00:49:34.523Z,100673.59
2018-12-11T00:54:37.840Z,100670.79
2018-12-11T00:59:41.081Z,100666.37
2018-12-11T01:04:44.543Z,100666.64
2018-12-11T01:09:47.830Z,100662.75
2018-12-11T01:14:51.765Z,100662.39
2018-12-11T01:19:55.129Z,100655.31
2018-12-11T01:24:58.390Z,100654.51
2018-12-11T01:30:01.666Z,100664.03
2018-12-11T01:35:05.128Z,100659.89
2018-12-11T01:40:15.101Z,100666.52
2018-12-11T01:45:18.419Z,100654.55
2018-12-11T01:50:21.751Z,100663.23
2018-12-11T01:55:25.076Z,100659.05
2018-12-11T02:00:28.701Z,100662.67
2018-12-11T02:05:31.922Z,100677.69
2018-12-11T02:10:35.161Z,100669.46
2018-12-11T02:15:38.432Z,100662.83
2018-12-11T02:20:45.113Z,100669.55
2018-12-11T02:25:49.047Z,100666.56
2018-12-11T02:30:53.170Z,100667.00
2018-12-11T02:35:56.601Z,100662.03
2018-12-11T02:40:59.948Z,100663.23
2018-12-11T02:46:03.452Z,100675.81
2018-12-11T02:51:06.976Z,100675.69
2018-12-11T02:56:10.499Z,100637.59
2018-12-11T03:01:14.081Z,100643.78
2018-12-11T03:06:17.484Z,100650.98
2018-12-11T03:11:20.866Z,100643.58
2018-12-11T03:16:24.227Z,100646.31
2018-12-11T03:21:27.753Z,100648.31
2018-12-11T03:26:31.497Z,100644.81
2018-12-11T03:31:34.963Z,100642.92
2018-12-11T03:36:38.577Z,100646.19
2018-12-11T03:41:42.076Z,100650.09
2018-12-11T03:46:45.837Z,100647.11
2018-12-11T03:51:49.122Z,100649.48
2018-12-11T03:56:52.402Z,100644.33
2018-12-11T04:01:55.744Z,100644.58
2018-12-11T04:06:58.882Z,100649.56
2018-12-11T04:12:02.235Z,100628.27
2018-12-11T04:17:05.641Z,100651.10
2018-12-11T04:22:08.910Z,100642.86
2018-12-11T04:27:12.191Z,100636.67
2018-12-11T04:32:15.845Z,100635.27
2018-12-11T04:37:19.097Z,100635.27
2018-12-11T04:42:22.357Z,100649.77
2018-12-11T04:47:25.655Z,100646.68
2018-12-11T04:52:29.652Z,100649.01
2018-12-11T04:57:33.387Z,100657.01
2018-12-11T05:02:36.864Z,100665.05
2018-12-11T05:07:40.075Z,100666.69
2018-12-11T05:12:43.663Z,100659.30
2018-12-11T05:17:47.032Z,100688.37
2018-12-11T05:22:50.281Z,100685.13
2018-12-11T05:27:53.890Z,100695.25
2018-12-11T05:32:57.274Z,100694.41
2018-12-11T05:38:00.446Z,100687.53
2018-12-11T05:43:04.321Z,100698.69
2018-12-11T05:48:07.594Z,100704.72
2018-12-11T05:53:10.920Z,100708.33
2018-12-11T05:58:15.029Z,100707.81
2018-12-11T06:03:18.280Z,100703.88
2018-12-11T06:08:21.526Z,100707.42
2018-12-11T06:13:24.696Z,100719.59
2018-12-11T06:18:28.020Z,100717.71
2018-12-11T06:23:31.729Z,100726.39
2018-12-11T06:28:36.241Z,100741.81
2018-12-11T06:33:39.608Z,100746.39
2018-12-11T06:38:45.043Z,100741.25
2018-12-11T06:43:48.530Z,100749.20
2018-12-11T06:48:51.898Z,100746.16
2018-12-11T06:53:55.059Z,100767.82
2018-12-11T06:58:58.251Z,100783.94
2018-12-11T07:04:01.936Z,100806.14
2018-12-11T07:09:06.254Z,100817.99
2018-12-11T07:14:09.364Z,100833.70
2018-12-11T07:19:12.558Z,100836.63
2018-12-11T07:24:15.713Z,100852.67
2018-12-11T07:29:18.988Z,100845.95
2018-12-11T07:34:22.157Z,100850.41
2018-12-11T07:39:25.371Z,100865.12
2018-12-11T07:44:28.659Z,100864.75
2018-12-11T07:49:32.017Z,100862.22
2018-12-11T07:54:37.423Z,100876.88
2018-12-11T07:59:40.627Z,100873.61
2018-12-11T08:04:43.979Z,100873.33
2018-12-11T08:09:47.189Z,100884.77
2018-12-11T08:14:50.399Z,100892.92
2018-12-11T08:19:53.616Z,100901.72
2018-12-11T08:24:56.832Z,100903.88
2018-12-11T08:30:00.126Z,100905.29
2018-12-11T08:35:03.641Z,100908.16
2018-12-11T08:40:06.914Z,100926.12
2018-12-11T08:45:10.262Z,100928.50
2018-12-11T08:50:15.817Z,100932.36
2018-12-11T08:55:19.537Z,100935.95
2018-12-11T09:00:22.894Z,100944.88
2018-12-11T09:05:26.280Z,100951.97
2018-12-11T09:10:29.780Z,100951.72
2018-12-11T09:15:32.938Z,100970.64
2018-12-11T09:20:36.528Z,100969.68
2018-12-11T09:25:40.513Z,100973.55
2018-12-11T09:30:43.847Z,100975.67
2018-12-11T09:35:47.202Z,100977.36
2018-12-11T09:40:50.612Z,100980.38
2018-12-11T09:45:53.988Z,100986.15
2018-12-11T09:50:57.275Z,100980.83
2018-12-11T09:56:00.536Z,100984.27
2018-12-11T10:01:03.963Z,100987.89
2018-12-11T10:06:07.124Z,100991.95
2018-12-11T10:11:10.414Z,101004.16
2018-12-11T10:16:13.666Z,101002.27
2018-12-11T10:21:17.327Z,101009.36
2018-12-11T10:26:20.544Z,101009.73
2018-12-11T10:31:24.126Z,101013.35
2018-12-11T10:36:27.325Z,101009.95
2018-12-11T10:41:30.630Z,101012.27
2018-12-11T10:46:33.980Z,101014.30
2018-12-11T10:51:37.279Z,101026.86
2018-12-11T10:56:40.518Z,101026.25
2018-12-11T11:01:44.685Z,101030.22
2018-12-11T11:06:47.891Z,101040.73
2018-12-11T11:11:51.414Z,101048.20
2018-12-11T11:16:54.618Z,101052.55
2018-12-11T11:21:57.944Z,101060.28
2018-12-11T11:27:01.650Z,101061.25
2018-12-11T11:32:04.842Z,101078.59
2018-12-11T11:37:08.028Z,101085.27
2018-12-11T11:42:11.309Z,101084.37
2018-12-11T11:47:14.594Z,101089.73
2018-12-11T11:52:17.804Z,101106.64
2018-12-11T11:57:21.106Z,101102.72
2018-12-11T12:02:24.314Z,101115.97
2018-12-11T12:07:27.606Z,101110.00
2018-12-11T12:12:30.866Z,101119.02
2018-12-11T12:17:34.286Z,101109.66
2018-12-11T12:22:37.648Z,101118.81
2018-12-11T12:27:40.865Z,101120.05
2018-12-11T12:32:44.218Z,101113.36
2018-12-11T12:37:47.409Z,101113.64
2018-12-11T12:42:50.621Z,101120.66
2018-12-11T12:47:54.214Z,101120.28
2018-12-11T12:52:57.840Z,101121.61
2018-12-11T12:58:01.162Z,101128.61
2018-12-11T13:03:04.597Z,101131.00
2018-12-11T13:08:07.828Z,101137.53
2018-12-11T13:13:13.117Z,101142.20
2018-12-11T13:18:16.482Z,101150.27
2018-12-11T13:23:19.896Z,101155.21
2018-12-11T13:28:23.439Z,101159.55
2018-12-11T13:33:26.815Z,101161.83
2018-12-11T13:38:30.328Z,101166.39
2018-12-11T13:43:33.671Z,101176.03
2018-12-11T13:48:36.989Z,101175.44
2018-12-11T13:53:41.317Z,101182.91
2018-12-11T13:58:44.610Z,101187.95
2018-12-11T14:03:47.967Z,101184.58
2018-12-11T14:08:51.272Z,101187.45
2018-12-11T14:13:54.547Z,101187.45
2018-12-11T14:19:00.007Z,101190.10
2018-12-11T14:24:03.385Z,101189.52
2018-12-11T14:29:06.795Z,101195.31
2018-12-11T14:34:09.941Z,101198.09
2018-12-11T14:39:13.418Z,101199.17
2018-12-11T14:44:17.045Z,101203.39
2018-12-11T14:49:20.467Z,101197.47
2018-12-11T14:54:24.134Z,101207.02
2018-12-11T14:59:32.971Z,101203.88
2018-12-11T15:04:36.256Z,101208.94
2018-12-11T15:09:39.546Z,101215.80
2018-12-11T15:14:42.871Z,101217.48
2018-12-11T15:19:46.408Z,101223.53
2018-12-11T15:24:50.293Z,101227.37
2018-12-11T15:29:53.529Z,101233.17
2018-12-11T15:34:56.871Z,101230.52
2018-12-11T15:40:00.339Z,101240.77
2018-12-11T15:45:04.283Z,101234.48
2018-12-11T15:50:07.700Z,101240.64
2018-12-11T15:55:10.970Z,101239.45
2018-12-11T16:00:14.323Z,101253.41
2018-12-11T16:05:18.303Z,101253.17
2018-12-11T16:10:21.617Z,101257.73
2018-12-11T16:15:25.786Z,101261.97
2018-12-11T16:20:29.934Z,101263.16
2018-12-11T16:25:33.654Z,101274.73
2018-12-11T16:30:36.972Z,101275.94
2018-12-11T16:35:45.539Z,101280.41
2018-12-11T16:40:48.909Z,101284.03
2018-12-11T16:45:52.294Z,101290.55
2018-12-11T16:50:55.546Z,101294.66
2018-12-11T16:55:58.857Z,101296.36
2018-12-11T17:01:02.093Z,101301.14
2018-12-11T17:06:05.474Z,101301.02
2018-12-11T17:11:08.878Z,101316.22
2018-12-11T17:16:12.217Z,101327.16
2018-12-11T17:21:15.557Z,101323.05
2018-12-11T17:26:18.761Z,101335.22
2018-12-11T17:31:21.938Z,101337.16
2018-12-11T17:36:30.659Z,101334.27
2018-12-11T17:41:39.464Z,101339.94
2018-12-11T17:46:48.353Z,101335.06
2018-12-11T17:51:51.583Z,101347.99
2018-12-11T17:56:54.937Z,101351.09
2018-12-11T18:01:58.273Z,101356.77
2018-12-11T18:07:01.689Z,101360.50
2018-12-11T18:12:05.202Z,101362.30
2018-12-11T18:17:08.664Z,101363.49
2018-12-11T18:22:12.034Z,101365.53
2018-12-11T18:27:15.355Z,101375.55
2018-12-11T18:32:24.907Z,101375.28
2018-12-11T18:37:24.097Z,101387.07
2018-12-11T18:42:27.886Z,101392.00
2018-12-11T18:47:31.353Z,101389.01
2018-12-11T18:52:38.781Z,101406.77
2018-12-11T18:57:48.856Z,101406.42
2018-12-11T19:02:53.689Z,101411.12
2018-12-11T19:08:04.082Z,101414.95
2018-12-11T19:13:09.022Z,101421.67
2018-12-11T19:18:14.208Z,101435.30
2018-12-11T19:24:13.931Z,101431.92
2018-12-11T19:29:17.955Z,101442.72
2018-12-11T19:34:28.314Z,101440.41
2018-12-11T19:39:32.313Z,101451.13
2018-12-11T19:44:36.372Z,101455.34
2018-12-11T19:49:39.889Z,101456.91
2018-12-11T20:00:13.739Z,101457.00
2018-12-11T20:05:20.109Z,101457.77
2018-12-11T20:10:44.410Z,101462.18
2018-12-11T20:16:20.507Z,101470.81
2018-12-11T20:21:32.577Z,101478.81
2018-12-11T20:26:39.329Z,101485.05
2018-12-11T20:31:42.194Z,101487.69
2018-12-11T20:36:45.748Z,101493.67
2018-12-11T20:41:49.780Z,101498.66
2018-12-11T20:46:53.280Z,101500.20
2018-12-11T20:52:02.152Z,101512.38
2018-12-11T20:57:05.662Z,101520.98
2018-12-11T21:02:08.969Z,101522.40
2018-12-11T21:07:14.234Z,101522.40
2018-12-11T21:12:17.574Z,101522.56
2018-12-11T21:17:21.047Z,101526.10
2018-12-11T21:22:24.317Z,101532.71
2018-12-11T21:27:27.767Z,101534.41
2018-12-11T21:32:31.279Z,101537.77
2018-12-11T21:37:34.578Z,101536.97
2018-12-11T21:42:38.062Z,101541.38
2018-12-11T21:47:41.434Z,101543.55
2018-12-11T21:52:44.935Z,101548.18
2018-12-11T21:57:48.243Z,101547.12
2018-12-11T22:02:51.515Z,101551.19
2018-12-11T22:07:55.614Z,101555.05
2018-12-11T22:12:59.197Z,101556.57
2018-12-11T22:18:02.864Z,101557.60
2018-12-11T22:23:06.023Z,101547.80
2018-12-11T22:28:12.920Z,101557.69
2018-12-11T22:33:16.850Z,101563.66
2018-12-11T22:38:20.799Z,101563.25
2018-12-11T22:43:27.407Z,101568.36
2018-12-11T22:48:45.470Z,101573.45
2018-12-11T22:54:08.475Z,101581.11
2018-12-11T22:59:23.754Z,101581.09
2018-12-11T23:04:33.493Z,101583.16
2018-12-11T23:09:39.166Z,101587.67
2018-12-11T23:14:43.582Z,101593.78
2018-12-11T23:19:48.204Z,101600.28
2018-12-11T23:24:57.305Z,101593.94
2018-12-11T23:30:08.992Z,101602.57
2018-12-11T23:35:13.210Z,101604.36
2018-12-11T23:40:16.825Z,101611.08
2018-12-11T23:45:20.089Z,101619.87
2018-12-11T23:50:23.371Z,101612.80
2018-12-11T23:55:26.678Z,101620.81
